Sapporo, Japan

2:46 PM JST on July 27, 2016 (GMT +0900)
New Chitose | | Change Station

Elev 98 ft 42.77 °N, 141.69 °E | Updated 16 minutes ago

Light Rain Showers
Light Showers Rain
68 °F
Feels Like 68 °F
N
21
Wind Variable Wind from SSE

Today
High -- | Low -- °F
--% Chance of Precip.
Yesterday
High -- | Low -- °F
Precip. -- in
Pressure 29.83 in
Visibility 5.0 miles
Clouds Few 800 ft
Scattered Clouds 1500 ft
Mostly Cloudy 3000 ft
Dew Point 66 °F
Humidity 94%
Rainfall 0.00 in
Snow Depth Not available.
4:20 AM 7:01 PM
Waning Gibbous, 47% visible
METAR RJCC 270530Z 15018KT 8000 -SHRA FEW008 SCT015 BKN030 20/19 Q1010 RMK 1ST008 3ST015 6CU030 A2983
Pressure 29.83 in
Visibility 5.0 miles
Clouds Few 800 ft
Scattered Clouds 1500 ft
Mostly Cloudy 3000 ft
Dew Point 66 °F
Humidity 94%
Rainfall 0.00 in
Snow Depth Not available.
4:20 AM 7:01 PM
Waning Gibbous, 47% visible
METAR RJCC 270530Z 15018KT 8000 -SHRA FEW008 SCT015 BKN030 20/19 Q1010 RMK 1ST008 3ST015 6CU030 A2983

10-Day Weather Forecast

No radar image for this location.
×

Almanac

Astronomy

Jul. 27, 2016 Rise Set
Actual Time
Civil Twilight
Nautical Twilight
Astronomical Twilight
Moon
Length of Visible Light
Length of Day
Tomorrow will be .
, % of the Moon is Illuminated

Today's Extremes

Country Highs Country Lows

Community

WunderPhotos

Upload Photos

1,927,818 photos uploaded!

WunderBlog® & News

Nearby

Air Quality

  Air Quality AQ Index Pollutant
Not available.

Snow Depth

Station Depth Elevation

Earthquake Activity

City Distance Mag. Time & Date
Minimum magnitude displayed is 2.5.

Coastal Water Temperatures

Place Temperature

Stations

Nearby Weather Stations

Station Location Temp. Windchill Dew Point Humidity Wind Precip. Elev Updated Type